Time;durP1;ratioP1;P1;durP2;ratioP2;P2;SDS_P1;SDS_P2;PMS_P1;PMS_P2;Temp;Humidity;BMP_temperature;BMP_pressure;BME280_temperature;BME280_humidity;BME280_pressure;Samples;Min_cycle;Max_cycle;Signal;HPM_P1;HPM_P2
2021/03/13 00:02:18;;;;;;;1999.90;999.90;;;7.00;99.90;;;;;;6218580;23;20020;-95
2021/03/13 00:04:45;;;;;;;1999.90;999.90;;;7.10;99.90;;;;;;6219206;23;20025;-94
2021/03/13 00:07:12;;;;;;;1999.90;999.90;;;7.10;99.90;;;;;;6218208;23;20025;-95
2021/03/13 00:09:40;;;;;;;1999.90;999.90;;;7.10;99.90;;;;;;6218216;23;20021;-96
2021/03/13 00:12:09;;;;;;;1999.90;999.90;;;7.10;99.90;;;;;;6218468;23;20025;-95
2021/03/13 00:14:36;;;;;;;1999.90;999.90;;;7.10;99.90;;;;;;6218847;23;20078;-95
2021/03/13 00:17:03;;;;;;;1999.90;999.90;;;7.10;99.90;;;;;;6218053;23;20099;-95
2021/03/13 00:19:30;;;;;;;1999.90;999.90;;;7.10;99.90;;;;;;6218017;23;20027;-94
2021/03/13 00:21:58;;;;;;;1999.90;999.90;;;7.10;99.90;;;;;;6218754;23;20028;-94
2021/03/13 00:24:25;;;;;;;1999.90;999.90;;;7.10;99.90;;;;;;6219006;23;20306;-94
2021/03/13 00:26:53;;;;;;;1999.90;999.90;;;7.10;99.90;;;;;;6219336;23;20024;-95
2021/03/13 00:29:20;;;;;;;1999.90;999.90;;;7.10;99.90;;;;;;6218344;23;20057;-94
2021/03/13 00:31:48;;;;;;;1999.90;999.90;;;7.10;99.90;;;;;;6219430;23;20476;-95
2021/03/13 00:34:15;;;;;;;1999.90;999.90;;;7.10;99.90;;;;;;6218069;23;20025;-94
2021/03/13 00:36:43;;;;;;;1999.90;999.90;;;7.10;99.90;;;;;;6219156;23;20069;-95
2021/03/13 00:39:10;;;;;;;1999.90;999.90;;;7.10;99.90;;;;;;6219051;23;20043;-95
2021/03/13 00:41:37;;;;;;;1999.90;999.90;;;7.10;99.90;;;;;;6218518;23;20024;-94
2021/03/13 00:44:06;;;;;;;1999.90;999.90;;;7.10;99.90;;;;;;6219407;23;20032;-95
2021/03/13 00:46:33;;;;;;;1999.90;999.90;;;7.20;99.90;;;;;;6219294;23;20099;-94
2021/03/13 00:49:01;;;;;;;1999.90;999.90;;;7.20;99.90;;;;;;6217935;23;20028;-96
2021/03/13 00:51:28;;;;;;;1999.90;999.90;;;7.20;99.90;;;;;;6217944;23;20074;-94
2021/03/13 00:53:55;;;;;;;1999.90;999.90;;;7.20;99.90;;;;;;6218794;23;20463;-95
2021/03/13 00:56:23;;;;;;;1999.90;999.90;;;7.20;99.90;;;;;;6218319;23;20032;-94
2021/03/13 00:58:50;;;;;;;1999.90;999.90;;;7.20;99.90;;;;;;6218940;23;20079;-95
2021/03/13 01:01:18;;;;;;;1999.90;999.90;;;7.20;99.90;;;;;;6217877;23;20083;-95
2021/03/13 01:03:45;;;;;;;1999.90;999.90;;;7.20;99.90;;;;;;6217681;23;20023;-95
2021/03/13 01:06:12;;;;;;;1999.90;999.90;;;7.20;99.90;;;;;;6218742;23;20032;-95
2021/03/13 01:08:39;;;;;;;1999.90;999.90;;;7.30;99.90;;;;;;6217717;23;20107;-95
2021/03/13 01:11:07;;;;;;;1999.90;999.90;;;7.20;99.90;;;;;;6219297;23;20028;-94
2021/03/13 01:13:34;;;;;;;1999.90;999.90;;;7.30;99.90;;;;;;6218069;23;20064;-95
2021/03/13 01:16:01;;;;;;;1999.90;999.90;;;7.30;99.90;;;;;;6218435;23;20052;-95
2021/03/13 01:18:29;;;;;;;1999.90;999.90;;;7.20;99.90;;;;;;6218174;23;20021;-94
2021/03/13 01:20:56;;;;;;;1999.90;999.90;;;7.20;99.90;;;;;;6217834;23;20039;-94
2021/03/13 01:23:23;;;;;;;1999.90;999.90;;;7.20;99.90;;;;;;6219043;23;20025;-94
2021/03/13 01:25:50;;;;;;;1999.90;999.90;;;7.20;99.90;;;;;;6218263;23;20087;-94
2021/03/13 01:28:17;;;;;;;1999.90;999.90;;;7.20;99.90;;;;;;6218251;23;20052;-95
2021/03/13 01:30:58;;;;;;;1999.90;999.90;;;7.20;99.90;;;;;;6218002;23;20083;-95
2021/03/13 01:33:25;;;;;;;1999.90;999.90;;;7.20;99.90;;;;;;6218555;23;20104;-95
2021/03/13 01:35:54;;;;;;;1999.90;999.90;;;7.10;99.90;;;;;;6218303;23;20075;-95
2021/03/13 01:38:21;;;;;;;1999.90;999.90;;;7.10;99.90;;;;;;6218593;23;20050;-96
2021/03/13 01:40:49;;;;;;;1999.90;999.90;;;7.10;99.90;;;;;;6218233;23;20016;-94
2021/03/13 01:43:16;;;;;;;1999.90;999.90;;;7.10;99.90;;;;;;6218231;23;20025;-94
2021/03/13 01:45:43;;;;;;;1999.90;999.90;;;7.10;99.90;;;;;;6218106;23;20103;-95
2021/03/13 01:48:11;;;;;;;1999.90;999.90;;;7.10;99.90;;;;;;6218309;23;20302;-95
2021/03/13 01:50:39;;;;;;;1999.90;999.90;;;7.10;99.90;;;;;;6217547;23;20017;-94
2021/03/13 01:53:07;;;;;;;1999.90;999.90;;;7.00;99.90;;;;;;6217265;23;20025;-96
2021/03/13 01:55:34;;;;;;;1999.90;999.90;;;7.00;99.90;;;;;;6218792;23;20051;-95
2021/03/13 01:58:01;;;;;;;1999.90;999.90;;;7.00;99.90;;;;;;6217195;23;20040;-95
2021/03/13 02:00:28;;;;;;;1999.90;999.90;;;7.00;99.90;;;;;;6217428;23;20040;-95
2021/03/13 02:02:56;;;;;;;1999.90;999.90;;;6.90;99.90;;;;;;6216912;23;20020;-95
2021/03/13 02:05:25;;;;;;;1999.90;999.90;;;7.00;99.90;;;;;;6217388;23;20027;-95
2021/03/13 02:08:02;;;;;;;1999.90;999.90;;;6.90;99.90;;;;;;6217055;23;20071;-94
2021/03/13 02:10:40;;;;;;;1999.90;999.90;;;6.90;99.90;;;;;;6217723;23;20095;-95
2021/03/13 02:13:16;;;;;;;1999.90;999.90;;;6.90;99.90;;;;;;6217524;23;20047;-95
2021/03/13 02:15:51;;;;;;;1999.90;999.90;;;6.90;99.90;;;;;;6217211;23;20024;-95
2021/03/13 02:18:29;;;;;;;1999.90;999.90;;;6.80;99.90;;;;;;6217385;23;20024;-95
2021/03/13 02:21:16;;;;;;;1999.90;999.90;;;6.80;99.90;;;;;;6217272;23;20020;-95
2021/03/13 02:24:22;;;;;;;1999.90;999.90;;;6.80;99.90;;;;;;6217227;23;20025;-96
2021/03/13 02:27:00;;;;;;;1999.90;999.90;;;6.80;99.90;;;;;;6217488;23;20048;-96
2021/03/13 02:29:34;;;;;;;1999.90;999.90;;;6.80;99.90;;;;;;6217835;23;20021;-95
2021/03/13 02:32:05;;;;;;;1999.90;999.90;;;6.80;99.90;;;;;;6217405;23;20052;-94
2021/03/13 02:34:35;;;;;;;1999.90;999.90;;;6.80;99.90;;;;;;6217257;23;20036;-95
2021/03/13 02:37:09;;;;;;;1999.90;999.90;;;6.70;99.90;;;;;;6218047;23;20332;-95
2021/03/13 02:39:38;;;;;;;1999.90;999.90;;;6.70;99.90;;;;;;6217855;23;20074;-96
2021/03/13 02:42:06;;;;;;;1999.90;999.90;;;6.70;99.90;;;;;;6216986;23;20032;-95
2021/03/13 02:44:37;;;;;;;1999.90;999.90;;;6.70;99.90;;;;;;6218159;23;20032;-95
2021/03/13 02:47:07;;;;;;;1999.90;999.90;;;6.80;99.90;;;;;;6217810;23;20025;-95
2021/03/13 02:49:37;;;;;;;1999.90;999.90;;;6.80;99.90;;;;;;6217256;23;20024;-94
2021/03/13 02:52:06;;;;;;;1999.90;999.90;;;6.80;99.90;;;;;;6217797;23;20320;-95
2021/03/13 02:54:36;;;;;;;1999.90;999.90;;;6.80;99.90;;;;;;6217600;23;20047;-95
2021/03/13 02:57:05;;;;;;;1999.90;999.90;;;6.80;99.90;;;;;;6218016;23;20460;-96
2021/03/13 02:59:36;;;;;;;1999.90;999.90;;;6.80;99.90;;;;;;6217794;23;20016;-95
2021/03/13 03:02:05;;;;;;;1999.90;999.90;;;6.70;99.90;;;;;;6217265;23;20024;-95
2021/03/13 03:04:34;;;;;;;1999.90;999.90;;;6.80;99.90;;;;;;6218164;23;20021;-95
2021/03/13 03:07:01;;;;;;;1999.90;999.90;;;6.70;99.90;;;;;;6218448;23;20032;-96
2021/03/13 03:09:29;;;;;;;1999.90;999.90;;;6.70;99.90;;;;;;6220209;23;20031;-96
2021/03/13 03:11:57;;;;;;;1999.90;999.90;;;6.70;99.90;;;;;;6226402;23;20024;-95
2021/03/13 03:14:26;;;;;;;1999.90;999.90;;;6.70;99.90;;;;;;6219359;23;20025;-95
2021/03/13 03:16:57;;;;;;;1999.90;999.90;;;6.70;99.90;;;;;;6218797;23;20024;-96
2021/03/13 03:19:25;;;;;;;1999.90;999.90;;;6.70;99.90;;;;;;6219498;23;20027;-95
2021/03/13 03:21:52;;;;;;;1999.90;999.90;;;6.70;99.90;;;;;;6219323;23;20024;-95
2021/03/13 03:24:20;;;;;;;1999.90;999.90;;;6.70;99.90;;;;;;6218665;23;20024;-95
2021/03/13 03:26:47;;;;;;;1999.90;999.90;;;6.70;99.90;;;;;;6219460;23;20020;-96
2021/03/13 03:29:15;;;;;;;1999.90;999.90;;;6.70;99.90;;;;;;6218815;23;20025;-95
2021/03/13 03:31:42;;;;;;;1999.90;999.90;;;6.70;99.90;;;;;;6218735;23;20043;-96
2021/03/13 03:34:10;;;;;;;1999.90;999.90;;;6.80;99.90;;;;;;6219460;23;20027;-95
2021/03/13 03:36:37;;;;;;;1999.90;999.90;;;6.70;99.90;;;;;;6218918;23;20024;-95
2021/03/13 03:39:05;;;;;;;1999.90;999.90;;;6.70;99.90;;;;;;6218369;23;20040;-95
2021/03/13 03:41:34;;;;;;;1999.90;999.90;;;6.70;99.90;;;;;;6219168;23;20042;-95
2021/03/13 03:44:08;;;;;;;1999.90;999.90;;;6.80;99.90;;;;;;6219097;23;20075;-95
2021/03/13 03:46:36;;;;;;;1999.90;999.90;;;6.70;99.90;;;;;;6218893;23;20100;-95
2021/03/13 03:49:06;;;;;;;1999.90;999.90;;;6.80;99.90;;;;;;6218471;23;20750;-95
2021/03/13 03:51:35;;;;;;;1999.90;999.90;;;6.80;99.90;;;;;;6219477;23;20075;-96
2021/03/13 03:54:08;;;;;;;1999.90;999.90;;;6.70;99.90;;;;;;6218487;23;20032;-95
2021/03/13 03:56:35;;;;;;;1999.90;999.90;;;6.70;99.90;;;;;;6218804;23;20024;-96
2021/03/13 03:59:03;;;;;;;1999.90;999.90;;;6.80;99.90;;;;;;6219177;23;20460;-96
2021/03/13 04:01:30;;;;;;;1999.90;999.90;;;6.80;99.90;;;;;;6218976;23;20103;-96
2021/03/13 04:03:59;;;;;;;1999.90;999.90;;;6.80;99.90;;;;;;6218930;23;20021;-95
2021/03/13 04:06:28;;;;;;;1999.90;999.90;;;6.80;99.90;;;;;;6219373;23;20052;-95
2021/03/13 04:08:59;;;;;;;1999.90;999.90;;;6.80;99.90;;;;;;6217985;23;20025;-95
2021/03/13 04:11:28;;;;;;;1999.90;999.90;;;6.80;99.90;;;;;;6219165;23;20017;-94
2021/03/13 04:13:59;;;;;;;1999.90;999.90;;;6.80;99.90;;;;;;6218555;23;20025;-95
2021/03/13 04:16:29;;;;;;;1999.90;999.90;;;6.80;99.90;;;;;;6219594;23;20021;-96
2021/03/13 04:18:58;;;;;;;1999.90;999.90;;;6.80;99.90;;;;;;6219335;23;20024;-95
2021/03/13 04:21:26;;;;;;;1999.90;999.90;;;6.90;99.90;;;;;;6218314;23;20024;-96
2021/03/13 04:23:54;;;;;;;1999.90;999.90;;;6.90;99.90;;;;;;6218463;23;20021;-96
2021/03/13 04:26:23;;;;;;;1999.90;999.90;;;6.90;99.90;;;;;;6218747;23;20047;-96
2021/03/13 04:28:51;;;;;;;1999.90;999.90;;;6.90;99.90;;;;;;6218161;23;20031;-95
2021/03/13 04:31:23;;;;;;;1999.90;999.90;;;6.90;99.90;;;;;;6219484;23;20024;-95
2021/03/13 04:33:50;;;;;;;1999.90;999.90;;;6.90;99.90;;;;;;6218914;23;20032;-96
2021/03/13 04:36:18;;;;;;;1999.90;999.90;;;6.90;99.90;;;;;;6218102;23;20093;-95
2021/03/13 04:38:47;;;;;;;1999.90;999.90;;;7.00;99.90;;;;;;6218936;23;20029;-95
2021/03/13 04:41:14;;;;;;;1999.90;999.90;;;7.00;99.90;;;;;;6218048;23;20016;-94
2021/03/13 04:43:43;;;;;;;1999.90;999.90;;;7.00;99.90;;;;;;6218017;23;20020;-94
2021/03/13 04:46:11;;;;;;;1999.90;999.90;;;7.00;99.90;;;;;;6218595;23;20075;-95
2021/03/13 04:48:38;;;;;;;1999.90;999.90;;;7.00;99.90;;;;;;6217971;23;20024;-95
2021/03/13 04:51:07;;;;;;;1999.90;999.90;;;7.00;99.90;;;;;;6217731;23;20044;-96
2021/03/13 04:53:35;;;;;;;1999.90;999.90;;;7.10;99.90;;;;;;6218100;23;20025;-95
2021/03/13 04:56:02;;;;;;;1999.90;999.90;;;7.10;99.90;;;;;;6218376;23;20048;-95
2021/03/13 04:58:30;;;;;;;1999.90;999.90;;;7.10;99.90;;;;;;6217985;23;20036;-95
2021/03/13 05:00:58;;;;;;;1999.90;999.90;;;7.00;99.90;;;;;;6218537;23;20017;-95
2021/03/13 05:03:38;;;;;;;1999.90;999.90;;;7.10;99.90;;;;;;6218704;23;20075;-96
2021/03/13 05:06:06;;;;;;;1999.90;999.90;;;7.10;99.90;;;;;;6218400;23;20063;-96
2021/03/13 05:08:33;;;;;;;1999.90;999.90;;;7.10;99.90;;;;;;6218533;23;20044;-96
2021/03/13 05:11:01;;;;;;;1999.90;999.90;;;7.10;99.90;;;;;;6217541;23;20078;-96
2021/03/13 05:13:28;;;;;;;1999.90;999.90;;;7.20;99.90;;;;;;6217496;23;20025;-95
2021/03/13 05:15:55;;;;;;;1999.90;999.90;;;7.30;99.90;;;;;;6218328;23;20020;-95
2021/03/13 05:18:23;;;;;;;1999.90;999.90;;;7.20;99.90;;;;;;6218283;23;20447;-95
2021/03/13 05:20:50;;;;;;;1999.90;999.90;;;7.20;99.90;;;;;;6217537;23;20016;-96
2021/03/13 05:23:18;;;;;;;1999.90;999.90;;;7.20;99.90;;;;;;6218333;23;20078;-96
2021/03/13 05:25:45;;;;;;;1999.90;999.90;;;7.20;99.90;;;;;;6217419;23;20075;-96
2021/03/13 05:28:13;;;;;;;1999.90;999.90;;;7.30;99.90;;;;;;6217772;23;20025;-96
2021/03/13 05:30:40;;;;;;;1999.90;999.90;;;7.20;99.90;;;;;;6218284;23;20020;-95
2021/03/13 05:33:07;;;;;;;1999.90;999.90;;;7.30;99.90;;;;;;6218169;23;20074;-96
2021/03/13 05:35:38;;;;;;;1999.90;999.90;;;7.20;99.90;;;;;;6218878;23;20027;-96
2021/03/13 05:38:05;;;;;;;1999.90;999.90;;;7.30;99.90;;;;;;6217971;23;20044;-96
2021/03/13 05:40:33;;;;;;;1999.90;999.90;;;7.30;99.90;;;;;;6218540;23;20021;-96
2021/03/13 05:43:00;;;;;;;1999.90;999.90;;;7.30;99.90;;;;;;6218544;23;20032;-96
2021/03/13 05:45:28;;;;;;;1999.90;999.90;;;7.30;99.90;;;;;;6219753;23;20121;-96
2021/03/13 05:47:57;;;;;;;1999.90;999.90;;;7.40;99.90;;;;;;6218129;23;20036;-96
2021/03/13 05:50:27;;;;;;;1999.90;999.90;;;7.30;99.90;;;;;;6218138;23;20067;-96
2021/03/13 05:55:55;;;;;;;1999.90;999.90;;;6.90;99.90;;;;;;6264556;22;20020;-96
2021/03/13 05:58:25;;;;;;;1999.90;999.90;;;6.20;99.90;;;;;;6265131;23;20051;-96
2021/03/13 06:04:54;;;;;;;1999.90;999.90;;;5.70;99.90;;;;;;6190624;23;20012;-96
2021/03/13 06:07:23;;;;;;;1999.90;999.90;;;5.60;99.90;;;;;;6190118;23;20027;-96
2021/03/13 06:09:51;;;;;;;1999.90;999.90;;;5.50;99.90;;;;;;6189688;23;20096;-96
2021/03/13 06:12:21;;;;;;;1999.90;999.90;;;5.50;99.90;;;;;;6192018;23;20388;-96
2021/03/13 06:14:49;;;;;;;1999.90;999.90;;;5.50;99.90;;;;;;6188314;23;20025;-96
2021/03/13 06:17:17;;;;;;;1999.90;999.90;;;5.60;99.90;;;;;;6188725;23;20027;-96
2021/03/13 06:19:50;;;;;;;1999.90;999.90;;;5.60;99.90;;;;;;6189173;23;20024;-95
2021/03/13 06:22:47;;;;;;;1999.90;999.90;;;5.70;99.90;;;;;;6188956;23;20028;-96
2021/03/13 06:25:19;;;;;;;1999.90;999.90;;;5.80;99.90;;;;;;6103421;23;20023;-96
2021/03/13 06:27:51;;;;;;;1999.90;999.90;;;5.80;99.90;;;;;;6177693;23;20028;-96
2021/03/13 06:30:24;;;;;;;1999.90;999.90;;;6.00;99.90;;;;;;6195307;23;20017;-96
2021/03/13 06:32:53;;;;;;;;;;;6.10;99.90;;;;;;6244781;23;20339;-96
2021/03/13 06:35:24;;;;;;;1999.90;999.90;;;6.20;99.90;;;;;;6260675;22;19919;-96
2021/03/13 06:37:57;;;;;;;1999.90;999.90;;;6.20;99.90;;;;;;6261078;22;20040;-96
2021/03/13 06:40:35;;;;;;;;;;;6.30;99.90;;;;;;6264574;22;20020;-96
2021/03/13 06:43:23;;;;;;;1999.90;999.90;;;6.30;99.90;;;;;;6264794;22;19966;-96
2021/03/13 06:46:06;;;;;;;1999.90;999.90;;;6.30;99.90;;;;;;6265141;22;20032;-96
2021/03/13 06:48:38;;;;;;;1999.90;999.90;;;6.40;99.90;;;;;;6262337;22;20080;-96
2021/03/13 06:51:37;;;;;;;1999.90;999.90;;;6.40;99.90;;;;;;6266365;22;20027;-96
2021/03/13 06:54:13;;;;;;;1999.90;999.90;;;6.40;99.90;;;;;;6263331;22;20050;-96
2021/03/13 06:56:44;;;;;;;1999.90;999.90;;;6.40;99.90;;;;;;6266779;23;20050;-96
2021/03/13 06:59:26;;;;;;;1999.90;999.90;;;6.40;99.90;;;;;;6268885;23;20026;-96
2021/03/13 07:02:40;;;;;;;1999.90;999.90;;;6.50;99.90;;;;;;6268090;22;20032;-96
2021/03/13 07:05:31;;;;;;;1999.90;999.90;;;6.50;99.90;;;;;;6266777;23;20024;-96
2021/03/13 07:08:00;;;;;;;1999.90;999.90;;;6.60;99.90;;;;;;6266846;22;20031;-96
2021/03/13 07:10:36;;;;;;;1999.90;999.90;;;6.60;99.90;;;;;;6267168;22;20458;-96
2021/03/13 07:13:17;;;;;;;1999.90;999.90;;;6.60;99.90;;;;;;6264304;22;20029;-96
2021/03/13 07:15:51;;;;;;;1999.90;999.90;;;6.70;99.90;;;;;;6261207;23;20024;-96
2021/03/13 07:18:19;;;;;;;1999.90;999.90;;;6.60;99.90;;;;;;6263913;22;20024;-96
2021/03/13 07:20:53;;;;;;;1999.90;999.90;;;6.70;99.90;;;;;;6263178;22;20020;-96
2021/03/13 07:23:25;;;;;;;1999.90;999.90;;;6.70;99.90;;;;;;6258372;22;20028;-95
2021/03/13 07:25:56;;;;;;;1999.90;999.90;;;6.70;99.90;;;;;;6262862;22;20034;-96
2021/03/13 07:28:51;;;;;;;1999.90;999.90;;;6.70;99.90;;;;;;6240193;23;20020;-96
2021/03/13 07:31:37;;;;;;;1999.90;999.90;;;6.70;99.90;;;;;;6264197;22;20047;-96
2021/03/13 07:34:20;;;;;;;1999.90;999.90;;;6.70;99.90;;;;;;6264346;22;20024;-96
2021/03/13 07:37:00;;;;;;;1999.90;999.90;;;6.70;99.90;;;;;;6264817;22;20051;-96
2021/03/13 07:39:37;;;;;;;1999.90;999.90;;;6.70;99.90;;;;;;6264576;22;20046;-96
2021/03/13 07:42:35;;;;;;;1999.90;999.90;;;6.80;99.90;;;;;;6262227;23;20058;-96
2021/03/13 07:45:04;;;;;;;1999.90;999.90;;;6.80;99.90;;;;;;6267805;22;20042;-96
2021/03/13 07:47:51;;;;;;;1999.90;999.90;;;6.80;99.90;;;;;;6272763;22;20008;-96
2021/03/13 07:50:40;;;;;;;1999.90;999.90;;;6.80;99.90;;;;;;6271664;22;20008;-96
2021/03/13 07:53:17;;;;;;;1999.90;999.90;;;6.90;99.90;;;;;;6269389;22;20019;-96
2021/03/13 07:55:54;;;;;;;1999.90;999.90;;;6.90;99.90;;;;;;6260470;22;20030;-96
2021/03/13 08:27:45;;;;;;;1999.90;999.90;;;7.10;99.90;;;;;;6228930;23;20067;-96
2021/03/13 08:30:25;;;;;;;1999.90;999.90;;;7.10;99.90;;;;;;6235870;23;20093;-96
2021/03/13 08:33:35;;;;;;;1999.90;999.90;;;7.10;99.90;;;;;;6215120;23;20029;-96
2021/03/13 08:36:26;;;;;;;1999.90;999.90;;;7.10;99.90;;;;;;6238199;23;20021;-96
2021/03/13 08:46:55;;;;;;;1999.90;999.90;;;7.10;99.90;;;;;;6239557;23;20058;-96
2021/03/13 08:49:51;;;;;;;1999.90;999.90;;;7.10;99.90;;;;;;6238752;23;20059;-96
2021/03/13 08:52:41;;;;;;;1999.90;999.90;;;7.20;99.90;;;;;;6239099;23;20076;-96
2021/03/13 09:06:40;;;;;;;;;;;7.20;99.90;;;;;;6145220;23;20001;-96
2021/03/13 09:09:22;;;;;;;1999.90;999.90;;;7.30;99.90;;;;;;6143884;23;19917;-96
2021/03/13 09:12:44;;;;;;;1999.90;999.90;;;7.30;99.90;;;;;;6127898;23;20050;-96
2021/03/13 09:15:20;;;;;;;1999.90;999.90;;;7.30;99.90;;;;;;6120647;23;20029;-96
2021/03/13 09:17:53;;;;;;;1999.90;999.90;;;7.30;99.90;;;;;;6144197;23;20041;-96
2021/03/13 09:20:34;;;;;;;1999.90;999.90;;;7.30;99.90;;;;;;6233431;23;20020;-96
2021/03/13 09:25:49;;;;;;;1999.90;999.90;;;7.40;99.90;;;;;;6235960;23;20020;-96
2021/03/13 09:28:32;;;;;;;1999.90;999.90;;;7.40;99.90;;;;;;6235459;23;20074;-95
2021/03/13 09:31:13;;;;;;;1999.90;999.90;;;7.50;99.90;;;;;;6235928;23;20024;-95
2021/03/13 09:46:35;;;;;;;1999.90;999.90;;;7.50;99.90;;;;;;6204606;23;20412;-96
2021/03/13 09:49:06;;;;;;;1999.90;999.90;;;7.60;99.90;;;;;;6203952;23;20025;-96
2021/03/13 09:51:33;;;;;;;1999.90;999.90;;;7.60;99.90;;;;;;6196217;23;20444;-96
2021/03/13 09:54:06;;;;;;;1999.90;999.90;;;7.50;99.90;;;;;;6193100;23;20025;-95
2021/03/13 10:00:16;;;;;;;1999.90;999.90;;;7.60;99.90;;;;;;6192239;23;20017;-95
2021/03/13 10:02:46;;;;;;;1999.90;999.90;;;7.70;99.90;;;;;;6194039;23;20024;-96
2021/03/13 10:05:19;;;;;;;1999.90;999.90;;;7.60;99.90;;;;;;6193565;23;20025;-96
2021/03/13 10:07:49;;;;;;;1999.90;999.90;;;7.70;99.90;;;;;;6194455;23;20043;-96
2021/03/13 10:10:18;;;;;;;1999.90;999.90;;;7.60;99.90;;;;;;6192142;23;20021;-96
2021/03/13 10:12:48;;;;;;;1999.90;999.90;;;7.60;99.90;;;;;;6191400;23;20080;-96
2021/03/13 10:15:18;;;;;;;1999.90;999.90;;;7.60;99.90;;;;;;6192896;23;20076;-96
2021/03/13 10:18:13;;;;;;;1999.90;999.90;;;7.60;99.90;;;;;;6191221;23;20028;-96
2021/03/13 10:20:54;;;;;;;1999.90;999.90;;;7.60;99.90;;;;;;6192520;23;20017;-95
2021/03/13 10:23:24;;;;;;;1999.90;999.90;;;7.70;99.90;;;;;;6198438;23;20059;-96
2021/03/13 10:27:09;;;;;;;;;;;;;;;;;;;;;
2021/03/13 10:49:00;;;;;;;1999.90;999.90;;;7.90;99.90;;;;;;6026876;23;20029;-96
2021/03/13 10:51:30;;;;;;;1999.90;999.90;;;7.90;99.90;;;;;;6190622;23;20103;-96
2021/03/13 10:53:59;;;;;;;1999.90;999.90;;;7.90;99.90;;;;;;6189529;23;20067;-96
2021/03/13 10:56:42;;;;;;;1999.90;999.90;;;7.90;99.90;;;;;;6189892;23;20503;-96
2021/03/13 10:59:10;;;;;;;1999.90;999.90;;;8.00;99.90;;;;;;6189866;23;20028;-96
2021/03/13 11:01:42;;;;;;;1999.90;999.90;;;8.00;99.90;;;;;;6193027;23;20294;-95
2021/03/13 11:04:10;;;;;;;1999.90;999.90;;;7.90;99.90;;;;;;6188934;23;20028;-96
2021/03/13 11:06:39;;;;;;;1999.90;999.90;;;7.90;99.90;;;;;;6190603;23;20075;-96
2021/03/13 11:09:10;;;;;;;1999.90;999.90;;;8.00;99.90;;;;;;6188656;23;20087;-96
2021/03/13 11:11:38;;;;;;;1999.90;999.90;;;8.00;99.90;;;;;;6191746;23;20028;-96
2021/03/13 11:14:07;;;;;;;1999.90;999.90;;;8.00;99.90;;;;;;6190044;23;20025;-96
2021/03/13 11:16:35;;;;;;;1999.90;999.90;;;8.10;99.90;;;;;;6192168;23;20048;-96
2021/03/13 11:19:04;;;;;;;1999.90;999.90;;;8.10;99.90;;;;;;6195497;23;20021;-96
2021/03/13 11:21:31;;;;;;;1999.90;999.90;;;8.10;99.90;;;;;;6205243;23;20076;-96
2021/03/13 11:24:00;;;;;;;1999.90;999.90;;;8.20;99.90;;;;;;6195806;23;20072;-96
2021/03/13 11:26:27;;;;;;;1999.90;999.90;;;8.20;99.90;;;;;;6200446;23;20021;-96
2021/03/13 11:28:55;;;;;;;1999.90;999.90;;;8.20;99.90;;;;;;6201075;23;20021;-96
2021/03/13 11:31:24;;;;;;;1999.90;999.90;;;8.10;99.90;;;;;;6197120;23;20337;-96
2021/03/13 11:33:52;;;;;;;1999.90;999.90;;;8.00;99.90;;;;;;6192550;23;20079;-96
2021/03/13 11:36:20;;;;;;;1999.90;999.90;;;8.00;99.90;;;;;;6192023;23;20082;-96
2021/03/13 11:38:47;;;;;;;1999.90;999.90;;;8.10;99.90;;;;;;6193933;23;20025;-96
2021/03/13 11:41:16;;;;;;;1999.90;999.90;;;8.20;99.90;;;;;;6193927;23;20017;-96
2021/03/13 11:43:45;;;;;;;1999.90;999.90;;;8.30;99.90;;;;;;6192504;23;20032;-96
2021/03/13 11:46:15;;;;;;;1999.90;999.90;;;8.30;99.90;;;;;;6191972;23;20029;-96
2021/03/13 11:48:44;;;;;;;1999.90;999.90;;;8.30;99.90;;;;;;6190019;23;20096;-96
2021/03/13 11:51:12;;;;;;;1999.90;999.90;;;8.30;99.90;;;;;;6190411;23;20017;-96
2021/03/13 11:53:40;;;;;;;1999.90;999.90;;;8.30;99.90;;;;;;6189497;23;20029;-96
2021/03/13 11:56:08;;;;;;;1999.90;999.90;;;8.30;99.90;;;;;;6189321;23;20029;-96
2021/03/13 11:58:37;;;;;;;1999.90;999.90;;;8.30;99.90;;;;;;6189245;23;20025;-96
2021/03/13 12:01:19;;;;;;;1999.90;999.90;;;8.30;99.90;;;;;;6189559;23;20047;-96
2021/03/13 12:03:47;;;;;;;1999.90;999.90;;;8.30;99.90;;;;;;6188533;23;20025;-96
2021/03/13 12:06:17;;;;;;;1999.90;999.90;;;8.30;99.90;;;;;;6191715;23;20428;-96
2021/03/13 12:09:00;;;;;;;1999.90;999.90;;;8.30;99.90;;;;;;6190348;23;20028;-96
2021/03/13 12:11:27;;;;;;;1999.90;999.90;;;8.50;99.90;;;;;;6188755;23;20100;-96
2021/03/13 12:13:56;;;;;;;1999.90;999.90;;;8.50;99.90;;;;;;6189476;23;20021;-96
2021/03/13 12:16:23;;;;;;;1999.90;999.90;;;8.50;99.90;;;;;;6188340;23;20025;-96
2021/03/13 12:18:52;;;;;;;1999.90;999.90;;;8.50;99.90;;;;;;6188538;23;20021;-96
2021/03/13 12:21:20;;;;;;;1999.90;999.90;;;8.50;99.90;;;;;;6188550;23;20029;-96
2021/03/13 12:23:48;;;;;;;1999.90;999.90;;;8.50;99.90;;;;;;6189544;23;20095;-96
2021/03/13 12:26:15;;;;;;;1999.90;999.90;;;8.50;99.90;;;;;;6188974;23;20021;-96
2021/03/13 12:28:43;;;;;;;1999.90;999.90;;;8.40;99.90;;;;;;6188821;23;20092;-96
2021/03/13 12:31:11;;;;;;;1999.90;999.90;;;8.50;99.90;;;;;;6188435;23;20080;-96
2021/03/13 12:33:41;;;;;;;1999.90;999.90;;;8.50;99.90;;;;;;6189297;23;20429;-96
2021/03/13 12:36:12;;;;;;;1999.90;999.90;;;8.60;99.90;;;;;;6188864;23;20048;-96
2021/03/13 12:38:44;;;;;;;1999.90;999.90;;;8.70;99.90;;;;;;6189126;23;20040;-96
2021/03/13 12:41:16;;;;;;;1999.90;999.90;;;8.70;99.90;;;;;;6189196;23;20017;-96
2021/03/13 12:43:45;;;;;;;1999.90;999.90;;;8.60;99.90;;;;;;6188498;23;20021;-96
2021/03/13 12:46:16;;;;;;;1999.90;999.90;;;8.60;99.90;;;;;;6187996;23;20025;-96
2021/03/13 12:48:45;;;;;;;1999.90;999.90;;;8.60;99.90;;;;;;6187786;23;20394;-96
2021/03/13 12:51:13;;;;;;;1999.90;999.90;;;8.70;99.90;;;;;;6188652;23;20021;-95
2021/03/13 12:53:41;;;;;;;1999.90;999.90;;;8.70;99.90;;;;;;6191180;23;20333;-96
2021/03/13 12:56:08;;;;;;;1999.90;999.90;;;8.70;99.90;;;;;;6189225;23;20306;-95
2021/03/13 12:58:36;;;;;;;1999.90;999.90;;;8.70;99.90;;;;;;6191463;23;20027;-96
2021/03/13 13:01:05;;;;;;;1999.90;999.90;;;8.80;99.90;;;;;;6196710;23;20017;-96
2021/03/13 13:03:33;;;;;;;1999.90;999.90;;;8.80;99.90;;;;;;6192336;23;20108;-96
2021/03/13 13:06:01;;;;;;;1999.90;999.90;;;8.80;99.90;;;;;;6190666;23;20025;-96
2021/03/13 13:08:29;;;;;;;1999.90;999.90;;;8.70;99.90;;;;;;6189363;23;20020;-96
2021/03/13 13:10:58;;;;;;;1999.90;999.90;;;8.70;99.90;;;;;;6192264;23;20020;-96
2021/03/13 13:13:26;;;;;;;1999.90;999.90;;;8.70;99.90;;;;;;6191899;23;20025;-96
2021/03/13 13:15:58;;;;;;;1999.90;999.90;;;8.70;99.90;;;;;;6192714;23;20021;-95
2021/03/13 13:18:28;;;;;;;1999.90;999.90;;;8.70;99.90;;;;;;6191738;23;20099;-96
2021/03/13 13:20:57;;;;;;;1999.90;999.90;;;8.70;99.90;;;;;;6192045;23;20033;-96
2021/03/13 13:23:24;;;;;;;1999.90;999.90;;;8.60;99.90;;;;;;6194597;23;20028;-96
2021/03/13 13:25:52;;;;;;;1999.90;999.90;;;8.40;99.90;;;;;;6194409;23;20032;-96
2021/03/13 13:28:20;;;;;;;1999.90;999.90;;;8.20;99.90;;;;;;6193695;23;20051;-96
2021/03/13 13:30:48;;;;;;;1999.90;999.90;;;8.10;99.90;;;;;;6199981;23;20048;-96
2021/03/13 13:33:24;;;;;;;1999.90;999.90;;;7.90;99.90;;;;;;6196820;23;20021;-96
2021/03/13 13:35:52;;;;;;;1999.90;999.90;;;7.80;99.90;;;;;;6194695;23;20025;-96
2021/03/13 13:38:28;;;;;;;1999.90;999.90;;;7.90;99.90;;;;;;6191429;23;20060;-96
2021/03/13 13:40:56;;;;;;;1999.90;999.90;;;7.90;99.90;;;;;;6190299;23;20035;-96
2021/03/13 13:43:24;;;;;;;1999.90;999.90;;;8.00;99.90;;;;;;6192613;23;20070;-96
2021/03/13 13:45:55;;;;;;;1999.90;999.90;;;8.00;99.90;;;;;;6194008;23;20025;-96
2021/03/13 13:48:26;;;;;;;1999.90;999.90;;;8.10;99.90;;;;;;6192417;23;20376;-96
2021/03/13 13:51:01;;;;;;;1999.90;999.90;;;8.00;99.90;;;;;;6204628;23;20025;-96
2021/03/13 13:59:41;;;;;;;1999.90;999.90;;;7.50;99.90;;;;;;6248246;22;20362;-94
2021/03/13 14:02:09;;;;;;;1999.90;999.90;;;7.50;99.90;;;;;;6249073;23;20016;-93
2021/03/13 14:04:36;;;;;;;1999.90;999.90;;;7.50;99.90;;;;;;6248440;23;20074;-94
2021/03/13 14:07:04;;;;;;;1999.90;999.90;;;7.50;99.90;;;;;;6247595;23;20095;-93
2021/03/13 14:09:48;;;;;;;1999.90;999.90;;;7.60;99.90;;;;;;6248533;23;20024;-94
2021/03/13 14:12:17;;;;;;;1999.90;999.90;;;7.50;99.90;;;;;;6248320;23;20038;-96
2021/03/13 14:14:44;;;;;;;1999.90;999.90;;;7.60;99.90;;;;;;6248649;23;20028;-96